Time;durP1;ratioP1;P1;durP2;ratioP2;P2;SDS_P1;SDS_P2;PMS_P1;PMS_P2;Temp;Humidity;BMP_temperature;BMP_pressure;BME280_temperature;BME280_humidity;BME280_pressure;Samples;Min_cycle;Max_cycle;Signal;HPM_P1;HPM_P2
2021/01/30 00:00:07;;;;;;;2.30;0.70;;;3.50;99.90;;;;;;4965813;28;20066;-64
2021/01/30 00:02:33;;;;;;;6.63;1.10;;;3.40;99.90;;;;;;4967486;28;20031;-63
2021/01/30 00:04:59;;;;;;;4.30;0.98;;;3.30;99.90;;;;;;4968024;28;20034;-63
2021/01/30 00:07:24;;;;;;;3.72;1.17;;;3.20;99.90;;;;;;4966414;28;20027;-63
2021/01/30 00:09:50;;;;;;;1.52;1.13;;;3.30;99.90;;;;;;4965759;28;20035;-64
2021/01/30 00:12:16;;;;;;;6.15;1.25;;;3.20;99.90;;;;;;4963316;28;20027;-64
2021/01/30 00:14:41;;;;;;;5.45;1.02;;;3.20;99.90;;;;;;4965534;28;20058;-64
2021/01/30 00:17:08;;;;;;;4.47;0.88;;;3.20;99.90;;;;;;4960907;28;20041;-63
2021/01/30 00:19:35;;;;;;;15.20;1.08;;;3.20;99.90;;;;;;4964986;28;20499;-67
2021/01/30 00:22:06;;;;;;;7.47;1.23;;;3.10;99.90;;;;;;4962144;28;20050;-63
2021/01/30 00:24:32;;;;;;;4.57;1.27;;;3.10;99.90;;;;;;4972780;28;20035;-64
2021/01/30 00:27:01;;;;;;;3.33;1.05;;;3.20;99.90;;;;;;4971086;28;20065;-64
2021/01/30 00:29:29;;;;;;;5.45;1.00;;;3.20;99.90;;;;;;4972745;28;20476;-63
2021/01/30 00:31:55;;;;;;;2.72;0.85;;;3.10;99.90;;;;;;4970847;28;20403;-64
2021/01/30 00:34:23;;;;;;;4.10;1.15;;;3.10;99.90;;;;;;4968375;28;20023;-64
2021/01/30 00:36:53;;;;;;;3.88;1.05;;;3.00;99.90;;;;;;4963241;28;20038;-63
2021/01/30 00:39:19;;;;;;;3.70;0.90;;;3.00;99.90;;;;;;4962555;28;20027;-63
2021/01/30 00:41:45;;;;;;;4.47;1.13;;;3.00;99.90;;;;;;4965217;28;20043;-64
2021/01/30 00:44:10;;;;;;;4.72;0.50;;;3.00;99.90;;;;;;4962683;28;20263;-64
2021/01/30 00:46:36;;;;;;;1.90;0.55;;;3.00;99.90;;;;;;4964514;28;20062;-64
2021/01/30 00:49:01;;;;;;;2.45;0.80;;;3.00;99.90;;;;;;4964287;28;20046;-63
2021/01/30 00:51:27;;;;;;;2.22;0.77;;;2.90;99.90;;;;;;4968195;28;20480;-64
2021/01/30 00:53:53;;;;;;;1.67;0.80;;;2.90;99.90;;;;;;4966782;28;20089;-64
2021/01/30 00:56:18;;;;;;;2.10;1.00;;;2.80;99.90;;;;;;4965090;28;20034;-64
2021/01/30 00:58:45;;;;;;;2.65;1.05;;;2.80;99.90;;;;;;4967314;28;20051;-64
2021/01/30 01:01:12;;;;;;;4.13;1.30;;;2.80;99.90;;;;;;4965651;28;20038;-64
2021/01/30 01:03:38;;;;;;;1.50;0.95;;;2.80;99.90;;;;;;4961837;28;20491;-64
2021/01/30 01:06:04;;;;;;;3.70;1.30;;;2.80;99.90;;;;;;4958435;28;20114;-64
2021/01/30 01:08:30;;;;;;;3.08;1.00;;;2.80;99.90;;;;;;4961282;28;20046;-63
2021/01/30 01:10:56;;;;;;;3.35;1.60;;;2.80;99.90;;;;;;4961580;28;20050;-64
2021/01/30 01:13:22;;;;;;;5.72;1.20;;;2.70;99.90;;;;;;4960063;28;20094;-64
2021/01/30 01:15:48;;;;;;;2.35;1.35;;;2.60;99.90;;;;;;4961440;28;20071;-63
2021/01/30 01:18:13;;;;;;;4.22;1.67;;;2.50;99.90;;;;;;4962426;28;20583;-64
2021/01/30 01:20:39;;;;;;;3.67;1.33;;;2.50;99.90;;;;;;4994272;23;20046;-61
2021/01/30 01:23:05;;;;;;;3.15;1.10;;;2.50;99.90;;;;;;4980551;28;20518;-61
2021/01/30 01:25:31;;;;;;;2.28;1.05;;;2.50;99.90;;;;;;4985642;28;20092;-61
2021/01/30 01:27:56;;;;;;;2.38;1.23;;;2.50;99.90;;;;;;4983965;28;20097;-61
2021/01/30 01:30:24;;;;;;;2.53;1.25;;;2.50;99.90;;;;;;4985439;28;20070;-61
2021/01/30 01:32:51;;;;;;;2.05;1.33;;;2.50;99.90;;;;;;4983883;28;20120;-61
2021/01/30 01:35:21;;;;;;;2.15;1.23;;;2.40;99.90;;;;;;4983962;28;20034;-63
2021/01/30 01:37:46;;;;;;;2.85;1.65;;;2.40;99.90;;;;;;4987649;28;20117;-62
2021/01/30 01:40:15;;;;;;;3.42;2.03;;;2.40;99.90;;;;;;4980099;28;20595;-62
2021/01/30 01:42:40;;;;;;;3.45;2.10;;;2.30;99.90;;;;;;4984281;28;20097;-60
2021/01/30 01:45:07;;;;;;;2.65;1.67;;;2.30;99.90;;;;;;4980742;28;20458;-60
2021/01/30 01:47:45;;;;;;;3.33;1.33;;;2.40;99.90;;;;;;4984689;28;20034;-60
2021/01/30 01:50:35;;;;;;;1.92;1.30;;;2.30;99.90;;;;;;4984666;28;20073;-60
2021/01/30 01:53:11;;;;;;;5.05;2.10;;;2.30;99.90;;;;;;4982067;28;20042;-61
2021/01/30 01:55:41;;;;;;;2.25;1.67;;;2.30;99.90;;;;;;4985187;28;20035;-62
2021/01/30 01:58:07;;;;;;;3.55;1.95;;;2.30;99.90;;;;;;4983630;28;20035;-61
2021/01/30 02:00:33;;;;;;;2.63;1.60;;;2.20;99.90;;;;;;4981101;28;20170;-62
2021/01/30 02:02:59;;;;;;;2.30;1.60;;;2.20;99.90;;;;;;4983704;28;20642;-61
2021/01/30 02:05:27;;;;;;;3.67;1.83;;;2.20;99.90;;;;;;4981223;28;20044;-62
2021/01/30 02:07:58;;;;;;;2.67;1.73;;;2.20;99.90;;;;;;4982854;28;20035;-61
2021/01/30 02:10:27;;;;;;;2.63;1.88;;;2.20;99.90;;;;;;5012605;28;20101;-61
2021/01/30 02:12:57;;;;;;;3.08;2.05;;;2.20;99.90;;;;;;4982915;28;20039;-62
2021/01/30 02:15:23;;;;;;;;;;;2.20;99.90;;;;;;4981684;28;20034;-61
2021/01/30 02:18:12;;;;;;;2.92;1.90;;;2.20;99.90;;;;;;4982177;28;20490;-61
2021/01/30 02:20:47;;;;;;;4.32;2.53;;;2.20;99.90;;;;;;4980403;28;20042;-60
2021/01/30 02:23:31;;;;;;;3.15;2.03;;;2.20;99.90;;;;;;4981388;28;20034;-61
2021/01/30 02:26:26;;;;;;;5.32;2.17;;;2.20;99.90;;;;;;4983229;28;20122;-61
2021/01/30 02:29:10;;;;;;;3.40;2.28;;;2.20;99.90;;;;;;4983760;28;20394;-61
2021/01/30 02:31:59;;;;;;;4.10;2.00;;;2.20;99.90;;;;;;4983909;28;20042;-61
2021/01/30 02:34:49;;;;;;;3.33;1.90;;;2.30;99.90;;;;;;4982092;28;20092;-61
2021/01/30 02:37:22;;;;;;;3.17;1.90;;;2.20;99.90;;;;;;4980362;28;20467;-61
2021/01/30 02:39:57;;;;;;;3.65;2.40;;;2.20;99.90;;;;;;4980442;28;20137;-60
2021/01/30 02:42:27;;;;;;;4.72;2.70;;;2.10;99.90;;;;;;4981785;28;20117;-61
2021/01/30 02:45:11;;;;;;;4.07;2.53;;;2.10;99.90;;;;;;4980301;28;20073;-60
2021/01/30 02:47:42;;;;;;;4.65;2.85;;;2.10;99.90;;;;;;4994293;28;20031;-62
2021/01/30 02:50:17;;;;;;;3.85;2.10;;;2.20;99.90;;;;;;4980334;28;20030;-61
2021/01/30 02:52:46;;;;;;;2.35;1.50;;;2.20;99.90;;;;;;4980354;28;20042;-60
2021/01/30 02:55:15;;;;;;;3.83;2.20;;;2.10;99.90;;;;;;4980922;28;20035;-64
2021/01/30 02:57:41;;;;;;;3.83;2.50;;;2.10;99.90;;;;;;4981635;28;20044;-61
2021/01/30 03:00:11;;;;;;;5.82;2.25;;;2.10;99.90;;;;;;4980119;28;20049;-63
2021/01/30 03:02:38;;;;;;;3.28;1.85;;;2.10;99.90;;;;;;4981915;28;20056;-61
2021/01/30 03:05:09;;;;;;;2.13;1.67;;;2.10;99.90;;;;;;4978542;28;20372;-60
2021/01/30 03:07:52;;;;;;;3.63;2.28;;;2.10;99.90;;;;;;4982951;28;20089;-60
2021/01/30 03:10:36;;;;;;;3.97;2.22;;;2.10;99.90;;;;;;4981198;28;20035;-62
2021/01/30 03:13:11;;;;;;;3.17;2.08;;;2.10;99.90;;;;;;4983219;28;20808;-62
2021/01/30 03:15:47;;;;;;;3.75;2.08;;;2.10;99.90;;;;;;4980005;28;20082;-61
2021/01/30 03:18:17;;;;;;;4.22;2.10;;;2.10;99.90;;;;;;4979929;28;20110;-61
2021/01/30 03:20:44;;;;;;;3.92;2.17;;;2.10;99.90;;;;;;4980586;28;20093;-62
2021/01/30 03:23:12;;;;;;;3.97;2.58;;;2.10;99.90;;;;;;4980195;28;20103;-61
2021/01/30 03:25:39;;;;;;;3.75;2.50;;;2.20;99.90;;;;;;4980011;28;20031;-61
2021/01/30 03:28:05;;;;;;;4.32;2.50;;;2.20;99.90;;;;;;4981850;28;20491;-62
2021/01/30 03:30:32;;;;;;;4.00;2.25;;;2.20;99.90;;;;;;4983065;28;20027;-63
2021/01/30 03:32:59;;;;;;;4.10;2.60;;;2.10;99.90;;;;;;4979728;28;20034;-61
2021/01/30 03:35:26;;;;;;;4.07;2.55;;;2.20;99.90;;;;;;4984575;28;20042;-62
2021/01/30 03:37:51;;;;;;;3.17;2.15;;;2.20;99.90;;;;;;4982513;28;20039;-63
2021/01/30 03:40:19;;;;;;;4.50;2.70;;;2.10;99.90;;;;;;4982995;28;20506;-62
2021/01/30 03:42:44;;;;;;;2.97;2.28;;;2.20;99.90;;;;;;4981812;28;20038;-62
2021/01/30 03:45:14;;;;;;;3.83;2.47;;;2.10;99.90;;;;;;4980606;28;20120;-62
2021/01/30 03:47:39;;;;;;;3.75;2.38;;;2.10;99.90;;;;;;4981410;28;20033;-62
2021/01/30 03:50:07;;;;;;;4.30;2.38;;;2.10;99.90;;;;;;4979084;28;20030;-62
2021/01/30 03:52:33;;;;;;;2.65;2.20;;;2.10;99.90;;;;;;4981894;28;20043;-61
2021/01/30 03:54:59;;;;;;;5.15;2.33;;;2.00;99.90;;;;;;4978897;28;20035;-61
2021/01/30 03:57:24;;;;;;;4.40;2.63;;;2.00;99.90;;;;;;4981806;28;20034;-61
2021/01/30 03:59:50;;;;;;;6.55;3.03;;;2.00;99.90;;;;;;4979079;28;20039;-62
2021/01/30 04:02:16;;;;;;;5.60;2.40;;;2.00;99.90;;;;;;4980539;28;20035;-61
2021/01/30 04:04:44;;;;;;;3.45;2.00;;;2.00;99.90;;;;;;4980220;28;20031;-61
2021/01/30 04:07:09;;;;;;;4.43;2.35;;;2.00;99.90;;;;;;4979677;28;20399;-61
2021/01/30 04:09:35;;;;;;;4.38;2.50;;;2.00;99.90;;;;;;4979646;28;20042;-60
2021/01/30 04:12:01;;;;;;;3.75;2.20;;;2.00;99.90;;;;;;4978605;28;20121;-62
2021/01/30 04:14:27;;;;;;;4.72;2.55;;;2.00;99.90;;;;;;4981507;28;20030;-60
2021/01/30 04:16:52;;;;;;;3.90;1.85;;;2.00;99.90;;;;;;4978569;28;20554;-60
2021/01/30 04:19:18;;;;;;;3.28;1.98;;;1.90;99.90;;;;;;4980589;28;20026;-60
2021/01/30 04:21:44;;;;;;;2.83;1.88;;;1.90;99.90;;;;;;4979264;28;20039;-61
2021/01/30 04:24:10;;;;;;;3.05;1.63;;;1.90;99.90;;;;;;4979877;28;20065;-61
2021/01/30 04:26:36;;;;;;;3.10;1.48;;;1.90;99.90;;;;;;4980126;28;20042;-61
2021/01/30 04:29:02;;;;;;;4.88;2.00;;;1.80;99.90;;;;;;4978596;28;20446;-62
2021/01/30 04:31:27;;;;;;;2.97;1.98;;;1.80;99.90;;;;;;4981138;28;20038;-61
2021/01/30 04:33:53;;;;;;;4.07;1.77;;;1.80;99.90;;;;;;4978142;28;20031;-61
2021/01/30 04:36:20;;;;;;;2.97;1.38;;;1.70;99.90;;;;;;4980414;28;20022;-61
2021/01/30 04:38:46;;;;;;;2.42;1.33;;;1.70;99.90;;;;;;4978808;28;20495;-61
2021/01/30 04:41:39;;;;;;;2.58;1.35;;;1.60;99.90;;;;;;4978416;28;20047;-61
2021/01/30 04:44:31;;;;;;;2.60;1.40;;;1.60;99.90;;;;;;4978806;28;20042;-61
2021/01/30 04:47:14;;;;;;;3.08;1.70;;;1.50;99.90;;;;;;4980135;28;20050;-61
2021/01/30 04:49:43;;;;;;;4.20;1.20;;;1.50;99.90;;;;;;4979134;28;20084;-61
2021/01/30 04:52:26;;;;;;;3.25;1.55;;;1.40;99.90;;;;;;4978219;28;20042;-62
2021/01/30 04:55:15;;;;;;;2.97;1.65;;;1.40;99.90;;;;;;4981105;28;20133;-61
2021/01/30 04:57:52;;;;;;;1.80;1.20;;;1.30;99.90;;;;;;4982208;28;20037;-62
2021/01/30 05:00:49;;;;;;;2.72;1.42;;;1.30;99.90;;;;;;4980136;28;20038;-61
2021/01/30 05:03:40;;;;;;;1.90;1.20;;;1.30;99.90;;;;;;4981757;28;20038;-62
2021/01/30 05:06:12;;;;;;;2.80;1.35;;;1.30;99.90;;;;;;4981287;28;20391;-61
2021/01/30 05:08:46;;;;;;;2.58;1.35;;;1.10;99.90;;;;;;4979616;28;20450;-61
2021/01/30 05:11:23;;;;;;;3.05;1.40;;;1.10;99.90;;;;;;4977259;28;20045;-65
2021/01/30 05:14:11;;;;;;;5.82;1.88;;;1.10;99.90;;;;;;4981384;28;20495;-60
2021/01/30 05:16:44;;;;;;;3.10;1.48;;;1.10;99.90;;;;;;4981932;28;20070;-63
2021/01/30 05:19:12;;;;;;;5.28;1.75;;;1.10;99.90;;;;;;4980419;28;20042;-64
2021/01/30 05:21:49;;;;;;;3.25;1.70;;;1.10;99.90;;;;;;4979493;28;20065;-61
2021/01/30 05:24:16;;;;;;;2.72;1.35;;;1.10;99.90;;;;;;4979696;28;20129;-60
2021/01/30 05:27:13;;;;;;;3.50;1.52;;;1.00;99.90;;;;;;4978808;28;20574;-62
2021/01/30 05:29:45;;;;;;;1.92;1.20;;;1.00;99.90;;;;;;4981158;28;20034;-60
2021/01/30 05:32:41;;;;;;;3.17;1.35;;;1.00;99.90;;;;;;4979554;28;20491;-61
2021/01/30 05:35:30;;;;;;;3.50;1.38;;;1.00;99.90;;;;;;4982576;28;20034;-60
2021/01/30 05:38:07;;;;;;;4.00;1.52;;;1.10;99.90;;;;;;4980076;28;20045;-62
2021/01/30 05:40:43;;;;;;;2.75;1.58;;;1.00;99.90;;;;;;4978578;28;20113;-62
2021/01/30 05:43:21;;;;;;;3.67;1.65;;;1.00;99.90;;;;;;4978337;28;20045;-62
2021/01/30 05:45:52;;;;;;;3.10;1.52;;;1.00;99.90;;;;;;4980158;28;20104;-64
2021/01/30 05:48:25;;;;;;;3.72;1.70;;;1.00;99.90;;;;;;4981068;28;20483;-61
2021/01/30 05:50:58;;;;;;;2.97;1.30;;;0.90;99.90;;;;;;4977176;28;20066;-60
2021/01/30 05:53:27;;;;;;;3.90;1.92;;;0.90;99.90;;;;;;4981525;28;20037;-61
2021/01/30 05:55:54;;;;;;;5.38;1.55;;;0.90;99.90;;;;;;4977187;28;20041;-61
2021/01/30 05:58:22;;;;;;;2.92;1.60;;;0.90;99.90;;;;;;4980664;28;20149;-61
2021/01/30 06:00:48;;;;;;;6.90;1.73;;;0.90;99.90;;;;;;4977592;28;20038;-62
2021/01/30 06:03:17;;;;;;;3.05;1.80;;;0.80;99.90;;;;;;4981310;28;20031;-60
2021/01/30 06:05:52;;;;;;;3.47;1.63;;;0.80;99.90;;;;;;4980356;28;20030;-61
2021/01/30 06:08:18;;;;;;;2.83;1.30;;;0.90;99.90;;;;;;4983946;28;20447;-62
2021/01/30 06:10:44;;;;;;;2.80;1.60;;;0.90;99.90;;;;;;4981404;28;20054;-63
2021/01/30 06:13:22;;;;;;;3.28;1.45;;;0.90;99.90;;;;;;4982488;28;20047;-61
2021/01/30 06:15:52;;;;;;;3.78;1.83;;;0.90;99.90;;;;;;4980946;28;20645;-62
2021/01/30 06:18:36;;;;;;;3.92;1.20;;;0.80;99.90;;;;;;4983760;28;20030;-62
2021/01/30 06:21:19;;;;;;;3.78;1.42;;;0.80;99.90;;;;;;4984117;28;20050;-63
2021/01/30 06:24:02;;;;;;;3.25;1.40;;;0.90;99.90;;;;;;4982534;28;20042;-62
2021/01/30 06:26:29;;;;;;;3.40;1.52;;;0.90;99.90;;;;;;4984650;28;20057;-61
2021/01/30 06:29:02;;;;;;;2.60;1.50;;;0.90;99.90;;;;;;4981184;28;20396;-62
2021/01/30 06:31:39;;;;;;;4.15;1.77;;;0.90;99.90;;;;;;4982940;28;20039;-62
2021/01/30 06:34:30;;;;;;;3.58;1.83;;;0.90;99.90;;;;;;4981693;28;20030;-61
2021/01/30 06:36:57;;;;;;;3.65;1.77;;;0.90;99.90;;;;;;4981900;28;20069;-62
2021/01/30 06:39:33;;;;;;;2.90;1.60;;;1.00;99.90;;;;;;4985256;28;20073;-61
2021/01/30 06:42:08;;;;;;;3.83;1.80;;;1.00;99.90;;;;;;4981732;28;20125;-61
2021/01/30 06:44:36;;;;;;;3.17;1.77;;;1.00;99.90;;;;;;4982804;28;20042;-61
2021/01/30 06:47:14;;;;;;;3.35;1.98;;;1.10;99.90;;;;;;4982705;28;20043;-62
2021/01/30 06:49:52;;;;;;;2.00;1.38;;;1.10;99.90;;;;;;4981821;28;20043;-61
2021/01/30 06:52:24;;;;;;;4.22;1.85;;;1.10;99.90;;;;;;4983878;28;20680;-61
2021/01/30 06:55:05;;;;;;;3.72;1.85;;;1.10;99.90;;;;;;4984656;28;20042;-61
2021/01/30 06:57:50;;;;;;;3.80;2.17;;;1.20;99.90;;;;;;4979899;28;20112;-61
2021/01/30 07:00:17;;;;;;;4.35;1.77;;;1.20;99.90;;;;;;4979771;28;20070;-61
2021/01/30 07:02:47;;;;;;;3.97;1.77;;;1.30;99.90;;;;;;4982859;28;20419;-61
2021/01/30 07:05:19;;;;;;;6.07;1.95;;;1.30;99.90;;;;;;4979605;28;20027;-63
2021/01/30 07:08:22;;;;;;;3.90;2.00;;;1.30;99.90;;;;;;4983301;28;20042;-60
2021/01/30 07:11:07;;;;;;;3.67;1.67;;;1.30;99.90;;;;;;4979574;28;20395;-61
2021/01/30 07:13:45;;;;;;;3.38;1.77;;;1.30;99.90;;;;;;4982111;28;20045;-62
2021/01/30 07:16:29;;;;;;;3.75;2.25;;;1.40;99.90;;;;;;4982591;28;20039;-61
2021/01/30 07:19:04;;;;;;;4.00;2.00;;;1.30;99.90;;;;;;4983112;28;20034;-63
2021/01/30 07:21:39;;;;;;;3.42;1.40;;;1.40;99.90;;;;;;5012294;23;20042;-63
2021/01/30 07:24:17;;;;;;;3.55;1.85;;;1.30;99.90;;;;;;4998228;28;20057;-65
2021/01/30 07:27:04;;;;;;;3.25;1.92;;;1.30;99.90;;;;;;4998917;28;20065;-65
2021/01/30 07:29:41;;;;;;;2.92;1.95;;;1.30;99.90;;;;;;4998968;28;20627;-63
2021/01/30 07:32:10;;;;;;;3.88;1.77;;;1.30;99.90;;;;;;4982408;28;20503;-65
2021/01/30 07:34:57;;;;;;;5.03;2.17;;;1.30;99.90;;;;;;4983127;28;20038;-64
2021/01/30 07:37:41;;;;;;;4.35;1.80;;;1.30;99.90;;;;;;4982121;28;20038;-65
2021/01/30 07:40:18;;;;;;;3.47;1.60;;;1.30;99.90;;;;;;4978815;28;20061;-65
2021/01/30 07:42:58;;;;;;;3.63;1.60;;;1.30;99.90;;;;;;4983258;28;20034;-64
2021/01/30 07:45:37;;;;;;;2.90;1.45;;;1.30;99.90;;;;;;4982249;28;20614;-65
2021/01/30 07:48:22;;;;;;;3.28;1.83;;;1.30;99.90;;;;;;4981181;28;20030;-65
2021/01/30 07:50:52;;;;;;;2.85;1.52;;;1.30;99.90;;;;;;4983899;28;20537;-65
2021/01/30 07:53:24;;;;;;;3.55;1.75;;;1.40;99.90;;;;;;4980683;28;20027;-65
2021/01/30 07:56:14;;;;;;;3.67;2.00;;;1.40;99.90;;;;;;4982217;28;20113;-65
2021/01/30 07:59:04;;;;;;;4.70;1.52;;;1.40;99.90;;;;;;4992892;28;20030;-64
2021/01/30 08:01:48;;;;;;;6.70;1.70;;;1.40;99.90;;;;;;4989705;28;20118;-64
2021/01/30 08:04:42;;;;;;;4.50;1.63;;;1.40;99.90;;;;;;4992457;28;20034;-65
2021/01/30 08:07:14;;;;;;;2.28;1.50;;;1.40;99.90;;;;;;4982261;28;20050;-66
2021/01/30 08:10:14;;;;;;;3.50;1.55;;;1.40;99.90;;;;;;4979411;28;20500;-65
2021/01/30 08:13:05;;;;;;;3.47;1.60;;;1.40;99.90;;;;;;4980656;28;20030;-66
2021/01/30 08:15:45;;;;;;;3.80;1.80;;;1.30;99.90;;;;;;4977315;28;20039;-65
2021/01/30 08:18:11;;;;;;;;;;;1.40;99.90;;;;;;4980615;28;20039;-65
2021/01/30 08:20:55;;;;;;;3.03;1.48;;;1.40;99.90;;;;;;4979673;28;20401;-65
2021/01/30 08:23:30;;;;;;;3.45;1.73;;;1.50;99.90;;;;;;4981214;28;20035;-65
2021/01/30 08:26:00;;;;;;;4.22;1.83;;;1.50;99.90;;;;;;4978367;28;20349;-65
2021/01/30 08:28:26;;;;;;;;;;;1.50;99.90;;;;;;4979524;28;20119;-65
2021/01/30 08:30:55;;;;;;;4.43;2.42;;;1.60;99.90;;;;;;4980681;28;20007;-65
2021/01/30 08:33:21;;;;;;;5.15;2.00;;;1.60;99.90;;;;;;4978708;28;20043;-65
2021/01/30 08:35:53;;;;;;;4.53;2.10;;;1.60;99.90;;;;;;4985471;28;20096;-65
2021/01/30 08:38:18;;;;;;;3.65;1.90;;;1.60;99.90;;;;;;4984122;28;20419;-65
2021/01/30 08:40:56;;;;;;;3.05;1.75;;;1.60;99.90;;;;;;4985372;28;20049;-66
2021/01/30 08:43:42;;;;;;;5.20;2.65;;;1.70;99.90;;;;;;4985035;28;20038;-65
2021/01/30 08:46:39;;;;;;;4.80;2.38;;;1.70;99.90;;;;;;4986670;28;20534;-65
2021/01/30 08:49:14;;;;;;;4.25;2.33;;;1.60;99.90;;;;;;4982818;28;20499;-65
2021/01/30 08:51:44;;;;;;;6.07;2.72;;;1.70;99.90;;;;;;4982451;28;20189;-65
2021/01/30 08:54:34;;;;;;;4.45;2.80;;;1.70;99.90;;;;;;4980110;28;20053;-65
2021/01/30 08:57:01;;;;;;;5.73;2.97;;;1.70;99.90;;;;;;4985616;28;20042;-64
2021/01/30 08:59:47;;;;;;;6.45;2.72;;;1.70;99.90;;;;;;4987783;28;20034;-65
2021/01/30 09:02:36;;;;;;;5.80;2.80;;;1.80;99.90;;;;;;4987777;28;20049;-65
2021/01/30 09:05:02;;;;;;;6.43;2.80;;;1.80;99.90;;;;;;4985493;28;20034;-65
2021/01/30 09:07:33;;;;;;;5.70;3.03;;;1.80;99.90;;;;;;4984197;28;20499;-65
2021/01/30 09:10:29;;;;;;;5.00;2.47;;;1.80;99.90;;;;;;4984305;28;20061;-65
2021/01/30 09:13:19;;;;;;;7.90;2.80;;;1.70;99.90;;;;;;4997922;28;20043;-65
2021/01/30 09:15:44;;;;;;;5.20;2.50;;;1.70;99.90;;;;;;4983331;28;20130;-65
2021/01/30 09:18:22;;;;;;;6.57;2.20;;;1.70;99.90;;;;;;4985947;28;20184;-66
2021/01/30 09:21:07;;;;;;;5.05;2.10;;;1.80;99.90;;;;;;4986268;28;20039;-65
2021/01/30 09:23:53;;;;;;;4.40;2.55;;;1.90;99.90;;;;;;4983965;28;20487;-65
2021/01/30 09:26:51;;;;;;;5.00;2.72;;;1.80;99.90;;;;;;4980913;28;20026;-65
2021/01/30 09:29:25;;;;;;;5.00;2.30;;;1.90;99.90;;;;;;4982802;28;20062;-65
2021/01/30 09:31:56;;;;;;;4.88;2.20;;;1.90;99.90;;;;;;4982308;28;20117;-65
2021/01/30 09:34:24;;;;;;;5.60;2.28;;;1.90;99.90;;;;;;4988843;28;20030;-66
2021/01/30 09:36:53;;;;;;;4.18;2.28;;;1.90;99.90;;;;;;4993676;28;20041;-65
2021/01/30 09:39:31;;;;;;;5.35;2.35;;;1.90;99.90;;;;;;4993582;28;20034;-65
2021/01/30 09:42:06;;;;;;;4.43;2.28;;;2.00;99.90;;;;;;4988829;28;20124;-64
2021/01/30 09:44:32;;;;;;;5.28;2.45;;;2.10;99.90;;;;;;4989632;28;20093;-66
2021/01/30 09:47:05;;;;;;;4.50;1.90;;;2.10;99.90;;;;;;4991472;28;20038;-66
2021/01/30 09:49:42;;;;;;;5.18;2.58;;;2.20;99.90;;;;;;4986243;28;20416;-65
2021/01/30 09:52:08;;;;;;;4.07;2.03;;;2.20;99.90;;;;;;4980890;28;20102;-66
2021/01/30 09:54:36;;;;;;;3.72;1.73;;;2.20;99.90;;;;;;4980254;28;20038;-65
2021/01/30 09:57:16;;;;;;;5.22;2.55;;;2.20;99.90;;;;;;4980605;28;20054;-65
2021/01/30 09:59:42;;;;;;;;;;;2.20;99.90;;;;;;4984721;28;20039;-65
2021/01/30 10:02:19;;;;;;;4.78;2.03;;;2.20;99.90;;;;;;4983165;28;20396;-65
2021/01/30 10:04:45;;;;;;;3.42;1.83;;;2.30;99.90;;;;;;4978819;28;20504;-65
2021/01/30 10:07:14;;;;;;;5.15;2.05;;;2.30;99.90;;;;;;4981179;28;20492;-65
2021/01/30 10:09:45;;;;;;;3.78;1.88;;;2.20;99.90;;;;;;4987409;28;20125;-65
2021/01/30 10:12:13;;;;;;;3.90;1.98;;;2.20;99.90;;;;;;4982132;28;20038;-65
2021/01/30 10:14:45;;;;;;;4.65;2.13;;;2.20;99.90;;;;;;4986561;28;20081;-65
2021/01/30 10:17:15;;;;;;;3.95;2.05;;;2.10;99.90;;;;;;4979563;28;20042;-65
2021/01/30 10:19:42;;;;;;;3.70;1.80;;;2.10;99.90;;;;;;4980920;28;20484;-64
2021/01/30 10:22:20;;;;;;;4.05;1.60;;;2.10;99.90;;;;;;4982476;28;20122;-65
2021/01/30 10:24:47;;;;;;;4.72;2.20;;;2.10;99.90;;;;;;4982434;28;20034;-65
2021/01/30 10:27:16;;;;;;;5.10;2.25;;;2.10;99.90;;;;;;4984824;28;20034;-66
2021/01/30 10:29:42;;;;;;;4.95;2.13;;;2.10;99.90;;;;;;4984784;28;20693;-65
2021/01/30 10:32:19;;;;;;;4.22;1.90;;;2.30;99.90;;;;;;4981030;28;20039;-65
2021/01/30 10:34:58;;;;;;;4.25;2.20;;;2.30;99.90;;;;;;4981666;28;20505;-65
2021/01/30 10:37:39;;;;;;;4.85;1.60;;;2.40;99.90;;;;;;4981689;28;20034;-65
2021/01/30 10:40:11;;;;;;;5.85;2.35;;;2.40;99.90;;;;;;4984370;28;20062;-65
2021/01/30 10:42:38;;;;;;;3.80;1.92;;;2.40;99.90;;;;;;4984552;28;20646;-66
2021/01/30 10:45:11;;;;;;;4.40;2.08;;;2.40;99.90;;;;;;4984822;28;20030;-65
2021/01/30 10:47:37;;;;;;;3.78;1.90;;;2.50;99.90;;;;;;4980202;28;20031;-65
2021/01/30 10:50:12;;;;;;;3.53;1.83;;;2.50;99.90;;;;;;4980978;28;20138;-65
2021/01/30 10:52:37;;;;;;;4.20;1.90;;;2.60;99.90;;;;;;4979119;28;20703;-64
2021/01/30 10:55:23;;;;;;;4.28;1.95;;;2.60;99.90;;;;;;4977116;28;20031;-65
2021/01/30 10:57:48;;;;;;;4.00;1.92;;;2.50;99.90;;;;;;4986323;28;20050;-64
2021/01/30 11:00:32;;;;;;;3.17;1.60;;;2.60;99.90;;;;;;4990191;28;20054;-65
2021/01/30 11:03:17;;;;;;;3.80;2.20;;;2.70;99.90;;;;;;5018175;28;20035;-65
2021/01/30 11:05:43;;;;;;;3.85;1.75;;;2.70;99.90;;;;;;4991723;28;20103;-65
2021/01/30 11:08:08;;;;;;;3.15;1.45;;;2.70;99.90;;;;;;4990245;28;20052;-65
2021/01/30 11:10:41;;;;;;;4.07;1.67;;;2.70;99.90;;;;;;4982239;28;20047;-69
2021/01/30 11:13:10;;;;;;;4.10;1.90;;;2.80;99.90;;;;;;4983683;28;20045;-65
2021/01/30 11:15:41;;;;;;;3.13;1.48;;;2.90;99.90;;;;;;4980035;28;20499;-66
2021/01/30 11:18:26;;;;;;;3.22;1.75;;;2.90;99.90;;;;;;4978903;28;20492;-64
2021/01/30 11:20:52;;;;;;;3.85;1.88;;;2.90;99.90;;;;;;4978475;28;20045;-66
2021/01/30 11:23:42;;;;;;;4.07;1.52;;;2.80;99.90;;;;;;4981438;28;20137;-65
2021/01/30 11:26:24;;;;;;;3.67;1.65;;;2.90;99.90;;;;;;4982258;28;20576;-65
2021/01/30 11:28:50;;;;;;;3.08;1.67;;;2.90;99.90;;;;;;4979605;28;20030;-65
2021/01/30 11:31:17;;;;;;;6.07;2.17;;;3.00;99.90;;;;;;4980866;28;20553;-65
2021/01/30 11:33:44;;;;;;;3.70;1.85;;;3.00;99.90;;;;;;4980457;28;20114;-66
2021/01/30 11:36:15;;;;;;;4.15;1.73;;;3.00;99.90;;;;;;4978276;28;20039;-65
2021/01/30 11:38:42;;;;;;;4.70;2.17;;;3.10;99.90;;;;;;5010108;28;20113;-65
2021/01/30 11:41:08;;;;;;;4.00;2.05;;;3.10;99.90;;;;;;4984910;28;20034;-64
2021/01/30 11:43:34;;;;;;;4.72;1.73;;;3.10;99.90;;;;;;4988531;28;20109;-65
2021/01/30 11:46:00;;;;;;;3.72;2.10;;;3.00;99.90;;;;;;4986278;28;20094;-66
2021/01/30 11:48:25;;;;;;;4.03;1.90;;;3.00;99.90;;;;;;4989324;28;20031;-66
2021/01/30 11:50:51;;;;;;;3.47;1.50;;;3.00;99.90;;;;;;4987407;28;20047;-66
2021/01/30 11:53:21;;;;;;;3.58;1.80;;;2.90;99.90;;;;;;4984352;28;20117;-66
2021/01/30 11:55:47;;;;;;;9.77;1.85;;;3.00;99.90;;;;;;4984228;28;20046;-66
2021/01/30 11:58:14;;;;;;;3.88;1.85;;;3.00;99.90;;;;;;4980640;28;20030;-68
2021/01/30 12:00:39;;;;;;;3.35;1.60;;;2.90;99.90;;;;;;4981236;28;20041;-66
2021/01/30 12:03:05;;;;;;;3.35;1.67;;;3.00;99.90;;;;;;4984885;28;20030;-65
2021/01/30 12:05:31;;;;;;;3.22;1.42;;;3.00;99.90;;;;;;5014350;28;20510;-65
2021/01/30 12:07:57;;;;;;;2.65;1.40;;;3.00;99.90;;;;;;4980709;28;20407;-66
2021/01/30 12:10:23;;;;;;;3.40;1.70;;;3.00;99.90;;;;;;4986894;28;20035;-65
2021/01/30 12:12:48;;;;;;;3.70;1.90;;;3.00;99.90;;;;;;4987319;28;20045;-66
2021/01/30 12:15:14;;;;;;;3.35;1.77;;;3.10;99.90;;;;;;4983753;28;20494;-66
2021/01/30 12:17:46;;;;;;;3.10;1.52;;;3.00;99.90;;;;;;4989419;28;20137;-66
2021/01/30 12:20:19;;;;;;;6.47;2.25;;;3.00;99.90;;;;;;4988901;28;20254;-65
2021/01/30 12:22:45;;;;;;;4.20;2.03;;;3.00;99.90;;;;;;4988628;28;20026;-65
2021/01/30 12:25:11;;;;;;;4.32;1.80;;;3.10;99.90;;;;;;5002445;28;20030;-66
2021/01/30 12:27:40;;;;;;;3.17;1.70;;;3.10;99.90;;;;;;4998063;28;20023;-67
2021/01/30 12:30:06;;;;;;;3.33;1.60;;;3.20;99.90;;;;;;4995824;28;20026;-66
2021/01/30 12:32:31;;;;;;;3.80;1.88;;;3.30;99.90;;;;;;4997079;28;20045;-66
2021/01/30 12:34:57;;;;;;;4.93;1.83;;;3.40;99.90;;;;;;4995173;28;20026;-64
2021/01/30 12:37:22;;;;;;;3.78;1.98;;;3.40;99.90;;;;;;4995198;28;20038;-65
2021/01/30 12:39:48;;;;;;;4.90;2.25;;;3.30;99.90;;;;;;4989211;28;20030;-65
2021/01/30 12:42:14;;;;;;;4.50;1.92;;;3.30;99.90;;;;;;4983031;28;20049;-65
2021/01/30 12:44:40;;;;;;;4.35;2.22;;;3.30;99.90;;;;;;4989060;28;20030;-64
2021/01/30 12:47:05;;;;;;;3.10;1.80;;;3.30;99.90;;;;;;4983125;28;20045;-66
2021/01/30 12:49:31;;;;;;;3.47;1.73;;;3.30;99.90;;;;;;4982962;28;20030;-66
2021/01/30 12:51:56;;;;;;;4.32;1.85;;;3.30;99.90;;;;;;4989086;28;20039;-63
2021/01/30 12:54:23;;;;;;;3.83;1.67;;;3.30;99.90;;;;;;5001276;28;20042;-66
2021/01/30 12:56:48;;;;;;;2.80;1.83;;;3.30;99.90;;;;;;4984196;28;20505;-66
2021/01/30 12:59:14;;;;;;;3.28;2.00;;;3.30;99.90;;;;;;4988403;28;20038;-66
2021/01/30 13:01:40;;;;;;;3.72;1.75;;;3.30;99.90;;;;;;4982205;28;20038;-65
2021/01/30 13:04:06;;;;;;;4.45;2.25;;;3.30;99.90;;;;;;4983797;28;20566;-65
2021/01/30 13:06:33;;;;;;;3.55;2.10;;;3.40;99.90;;;;;;4988682;28;20487;-66
2021/01/30 13:08:59;;;;;;;4.05;2.22;;;3.40;99.90;;;;;;4986387;28;20106;-65
2021/01/30 13:11:24;;;;;;;3.28;1.80;;;3.40;99.90;;;;;;4984546;28;20054;-66
2021/01/30 13:13:50;;;;;;;3.65;1.83;;;3.40;99.90;;;;;;4990246;28;20041;-65
2021/01/30 13:16:16;;;;;;;3.47;1.95;;;3.40;99.90;;;;;;4990815;28;20096;-66
2021/01/30 13:18:41;;;;;;;4.97;2.00;;;3.40;99.90;;;;;;4993148;28;20168;-66
2021/01/30 13:21:08;;;;;;;3.58;2.05;;;3.40;99.90;;;;;;4985360;28;20045;-66
2021/01/30 13:23:34;;;;;;;3.45;1.88;;;3.40;99.90;;;;;;4983825;28;20030;-65